sensor_id;sensor_type;location;lat;lon;timestamp;P1;durP1;ratioP1;P2;durP2;ratioP2
11921;SDS011;6021;51.182;3.160;2023-06-22T00:01:04;6.13;;;5.53;;
11921;SDS011;6021;51.182;3.160;2023-06-22T00:03:33;6.60;;;6.00;;
11921;SDS011;6021;51.182;3.160;2023-06-22T00:06:01;7.37;;;6.77;;
11921;SDS011;6021;51.182;3.160;2023-06-22T00:08:29;7.93;;;7.13;;
11921;SDS011;6021;51.182;3.160;2023-06-22T00:10:58;7.90;;;7.20;;
11921;SDS011;6021;51.182;3.160;2023-06-22T00:13:26;7.53;;;6.83;;
11921;SDS011;6021;51.182;3.160;2023-06-22T00:15:55;7.57;;;6.87;;
11921;SDS011;6021;51.182;3.160;2023-06-22T00:18:24;7.13;;;6.53;;
11921;SDS011;6021;51.182;3.160;2023-06-22T00:20:54;6.80;;;6.20;;
11921;SDS011;6021;51.182;3.160;2023-06-22T00:23:26;8.07;;;5.93;;
11921;SDS011;6021;51.182;3.160;2023-06-22T00:25:54;7.67;;;6.70;;
11921;SDS011;6021;51.182;3.160;2023-06-22T00:28:23;7.93;;;6.87;;
11921;SDS011;6021;51.182;3.160;2023-06-22T00:30:51;7.27;;;6.67;;
11921;SDS011;6021;51.182;3.160;2023-06-22T00:33:19;7.53;;;6.83;;
11921;SDS011;6021;51.182;3.160;2023-06-22T00:35:47;7.80;;;7.10;;
11921;SDS011;6021;51.182;3.160;2023-06-22T00:38:18;8.70;;;7.90;;
11921;SDS011;6021;51.182;3.160;2023-06-22T00:40:46;7.70;;;7.00;;
11921;SDS011;6021;51.182;3.160;2023-06-22T00:43:14;7.67;;;6.97;;
11921;SDS011;6021;51.182;3.160;2023-06-22T00:45:43;7.43;;;6.83;;
11921;SDS011;6021;51.182;3.160;2023-06-22T00:48:11;7.90;;;7.10;;
11921;SDS011;6021;51.182;3.160;2023-06-22T00:50:41;7.57;;;6.83;;
11921;SDS011;6021;51.182;3.160;2023-06-22T00:53:09;7.13;;;6.53;;
11921;SDS011;6021;51.182;3.160;2023-06-22T00:55:38;7.20;;;6.50;;
11921;SDS011;6021;51.182;3.160;2023-06-22T00:58:13;6.50;;;5.90;;
11921;SDS011;6021;51.182;3.160;2023-06-22T01:00:41;6.97;;;6.37;;
11921;SDS011;6021;51.182;3.160;2023-06-22T01:03:10;8.27;;;7.00;;
11921;SDS011;6021;51.182;3.160;2023-06-22T01:05:38;8.20;;;7.40;;
11921;SDS011;6021;51.182;3.160;2023-06-22T01:11:05;8.43;;;7.63;;
11921;SDS011;6021;51.182;3.160;2023-06-22T01:16:14;8.00;;;7.20;;
11921;SDS011;6021;51.182;3.160;2023-06-22T01:18:41;7.70;;;7.00;;
11921;SDS011;6021;51.182;3.160;2023-06-22T01:21:12;7.57;;;6.87;;
11921;SDS011;6021;51.182;3.160;2023-06-22T01:26:44;7.60;;;6.80;;
11921;SDS011;6021;51.182;3.160;2023-06-22T01:28:58;7.60;;;6.90;;
11921;SDS011;6021;51.182;3.160;2023-06-22T01:31:28;7.67;;;6.97;;
11921;SDS011;6021;51.182;3.160;2023-06-22T01:33:58;7.43;;;6.73;;
11921;SDS011;6021;51.182;3.160;2023-06-22T01:36:28;7.33;;;6.63;;
11921;SDS011;6021;51.182;3.160;2023-06-22T01:38:58;7.60;;;6.90;;
11921;SDS011;6021;51.182;3.160;2023-06-22T01:41:28;6.50;;;5.90;;
11921;SDS011;6021;51.182;3.160;2023-06-22T01:43:59;7.27;;;6.57;;
11921;SDS011;6021;51.182;3.160;2023-06-22T01:46:30;9.07;;;8.10;;
11921;SDS011;6021;51.182;3.160;2023-06-22T01:48:59;7.83;;;7.13;;
11921;SDS011;6021;51.182;3.160;2023-06-22T01:51:30;8.00;;;7.30;;
11921;SDS011;6021;51.182;3.160;2023-06-22T01:53:58;7.60;;;6.73;;
11921;SDS011;6021;51.182;3.160;2023-06-22T01:56:27;8.10;;;7.30;;
11921;SDS011;6021;51.182;3.160;2023-06-22T01:59:04;8.13;;;7.33;;
11921;SDS011;6021;51.182;3.160;2023-06-22T02:01:30;8.33;;;7.53;;
11921;SDS011;6021;51.182;3.160;2023-06-22T02:04:11;7.80;;;7.10;;
11921;SDS011;6021;51.182;3.160;2023-06-22T02:06:36;9.37;;;8.47;;
11921;SDS011;6021;51.182;3.160;2023-06-22T02:09:08;10.23;;;9.23;;
11921;SDS011;6021;51.182;3.160;2023-06-22T02:11:37;8.57;;;7.77;;
11921;SDS011;6021;51.182;3.160;2023-06-22T02:14:08;8.17;;;7.37;;
11921;SDS011;6021;51.182;3.160;2023-06-22T02:16:38;8.13;;;7.33;;
11921;SDS011;6021;51.182;3.160;2023-06-22T02:19:07;10.30;;;8.47;;
11921;SDS011;6021;51.182;3.160;2023-06-22T02:21:35;11.60;;;9.77;;
11921;SDS011;6021;51.182;3.160;2023-06-22T02:24:04;8.60;;;7.70;;
11921;SDS011;6021;51.182;3.160;2023-06-22T02:26:33;9.20;;;8.20;;
11921;SDS011;6021;51.182;3.160;2023-06-22T02:29:01;9.00;;;8.10;;
11921;SDS011;6021;51.182;3.160;2023-06-22T02:31:30;8.20;;;7.47;;
11921;SDS011;6021;51.182;3.160;2023-06-22T02:33:59;8.60;;;7.70;;
11921;SDS011;6021;51.182;3.160;2023-06-22T02:36:27;8.30;;;7.50;;
11921;SDS011;6021;51.182;3.160;2023-06-22T02:38:56;8.00;;;7.20;;
11921;SDS011;6021;51.182;3.160;2023-06-22T02:41:27;7.97;;;7.20;;
11921;SDS011;6021;51.182;3.160;2023-06-22T02:43:56;7.50;;;6.80;;
11921;SDS011;6021;51.182;3.160;2023-06-22T02:46:24;8.33;;;7.53;;
11921;SDS011;6021;51.182;3.160;2023-06-22T02:48:52;8.60;;;7.60;;
11921;SDS011;6021;51.182;3.160;2023-06-22T02:51:21;8.23;;;7.43;;
11921;SDS011;6021;51.182;3.160;2023-06-22T02:53:49;8.67;;;7.77;;
11921;SDS011;6021;51.182;3.160;2023-06-22T02:56:18;9.63;;;8.63;;
11921;SDS011;6021;51.182;3.160;2023-06-22T02:58:48;11.13;;;9.40;;
11921;SDS011;6021;51.182;3.160;2023-06-22T03:01:16;9.53;;;8.37;;
11921;SDS011;6021;51.182;3.160;2023-06-22T03:03:46;9.87;;;8.40;;
11921;SDS011;6021;51.182;3.160;2023-06-22T03:06:15;8.60;;;7.80;;
11921;SDS011;6021;51.182;3.160;2023-06-22T03:08:45;8.37;;;7.57;;
11921;SDS011;6021;51.182;3.160;2023-06-22T03:11:13;8.73;;;7.83;;
11921;SDS011;6021;51.182;3.160;2023-06-22T03:13:41;9.40;;;8.50;;
11921;SDS011;6021;51.182;3.160;2023-06-22T03:16:12;8.13;;;7.37;;
11921;SDS011;6021;51.182;3.160;2023-06-22T03:18:40;8.10;;;7.33;;
11921;SDS011;6021;51.182;3.160;2023-06-22T03:21:08;7.13;;;6.43;;
11921;SDS011;6021;51.182;3.160;2023-06-22T03:23:37;7.20;;;6.60;;
11921;SDS011;6021;51.182;3.160;2023-06-22T03:26:05;6.73;;;6.13;;
11921;SDS011;6021;51.182;3.160;2023-06-22T03:28:33;6.60;;;6.00;;
11921;SDS011;6021;51.182;3.160;2023-06-22T03:31:02;8.33;;;7.33;;
11921;SDS011;6021;51.182;3.160;2023-06-22T03:33:33;7.13;;;6.43;;
11921;SDS011;6021;51.182;3.160;2023-06-22T03:36:01;6.80;;;6.20;;
11921;SDS011;6021;51.182;3.160;2023-06-22T03:38:30;7.10;;;6.40;;
11921;SDS011;6021;51.182;3.160;2023-06-22T03:40:58;7.00;;;6.40;;
11921;SDS011;6021;51.182;3.160;2023-06-22T03:43:27;6.03;;;5.50;;
11921;SDS011;6021;51.182;3.160;2023-06-22T03:45:55;6.23;;;5.73;;
11921;SDS011;6021;51.182;3.160;2023-06-22T03:48:23;6.53;;;5.90;;
11921;SDS011;6021;51.182;3.160;2023-06-22T03:50:51;5.53;;;4.87;;
11921;SDS011;6021;51.182;3.160;2023-06-22T03:53:20;5.30;;;4.90;;
11921;SDS011;6021;51.182;3.160;2023-06-22T03:55:49;5.40;;;4.90;;
11921;SDS011;6021;51.182;3.160;2023-06-22T03:58:18;5.30;;;4.80;;
11921;SDS011;6021;51.182;3.160;2023-06-22T04:00:47;5.83;;;5.07;;
11921;SDS011;6021;51.182;3.160;2023-06-22T04:03:18;5.50;;;5.00;;
11921;SDS011;6021;51.182;3.160;2023-06-22T04:05:47;5.80;;;5.30;;
11921;SDS011;6021;51.182;3.160;2023-06-22T04:08:15;5.13;;;4.73;;
11921;SDS011;6021;51.182;3.160;2023-06-22T04:10:44;5.40;;;4.90;;
11921;SDS011;6021;51.182;3.160;2023-06-22T04:13:12;6.53;;;5.73;;
11921;SDS011;6021;51.182;3.160;2023-06-22T04:15:41;6.60;;;6.00;;
11921;SDS011;6021;51.182;3.160;2023-06-22T04:18:09;7.30;;;6.60;;
11921;SDS011;6021;51.182;3.160;2023-06-22T04:20:37;8.40;;;7.60;;
11921;SDS011;6021;51.182;3.160;2023-06-22T04:23:06;8.37;;;7.47;;
11921;SDS011;6021;51.182;3.160;2023-06-22T04:25:34;9.40;;;8.20;;
11921;SDS011;6021;51.182;3.160;2023-06-22T04:28:03;8.07;;;7.27;;
11921;SDS011;6021;51.182;3.160;2023-06-22T04:30:32;7.73;;;6.97;;
11921;SDS011;6021;51.182;3.160;2023-06-22T04:33:00;7.37;;;6.67;;
11921;SDS011;6021;51.182;3.160;2023-06-22T04:35:30;8.53;;;7.40;;
11921;SDS011;6021;51.182;3.160;2023-06-22T04:37:58;8.03;;;7.13;;
11921;SDS011;6021;51.182;3.160;2023-06-22T04:40:27;7.97;;;7.20;;
11921;SDS011;6021;51.182;3.160;2023-06-22T04:42:55;7.47;;;6.77;;
11921;SDS011;6021;51.182;3.160;2023-06-22T04:45:23;7.77;;;7.07;;
11921;SDS011;6021;51.182;3.160;2023-06-22T04:47:52;9.57;;;7.83;;
11921;SDS011;6021;51.182;3.160;2023-06-22T04:50:20;8.47;;;7.43;;
11921;SDS011;6021;51.182;3.160;2023-06-22T04:52:50;9.80;;;7.60;;
11921;SDS011;6021;51.182;3.160;2023-06-22T04:55:19;8.00;;;7.30;;
11921;SDS011;6021;51.182;3.160;2023-06-22T04:57:48;8.73;;;7.93;;
11921;SDS011;6021;51.182;3.160;2023-06-22T05:00:17;7.90;;;7.10;;
11921;SDS011;6021;51.182;3.160;2023-06-22T05:02:47;9.50;;;8.50;;
11921;SDS011;6021;51.182;3.160;2023-06-22T05:05:16;8.10;;;7.30;;
11921;SDS011;6021;51.182;3.160;2023-06-22T05:07:45;8.80;;;7.90;;
11921;SDS011;6021;51.182;3.160;2023-06-22T05:10:17;7.30;;;6.50;;
11921;SDS011;6021;51.182;3.160;2023-06-22T05:12:46;6.43;;;5.83;;
11921;SDS011;6021;51.182;3.160;2023-06-22T05:15:14;7.13;;;6.50;;
11921;SDS011;6021;51.182;3.160;2023-06-22T05:17:45;7.00;;;6.17;;
11921;SDS011;6021;51.182;3.160;2023-06-22T05:20:13;7.17;;;6.47;;
11921;SDS011;6021;51.182;3.160;2023-06-22T05:22:43;6.97;;;6.27;;
11921;SDS011;6021;51.182;3.160;2023-06-22T05:25:12;7.27;;;6.30;;
11921;SDS011;6021;51.182;3.160;2023-06-22T05:27:41;7.87;;;6.20;;
11921;SDS011;6021;51.182;3.160;2023-06-22T05:30:10;7.27;;;6.57;;
11921;SDS011;6021;51.182;3.160;2023-06-22T05:32:39;7.07;;;6.37;;
11921;SDS011;6021;51.182;3.160;2023-06-22T05:35:07;6.83;;;5.67;;
11921;SDS011;6021;51.182;3.160;2023-06-22T05:37:36;5.40;;;4.90;;
11921;SDS011;6021;51.182;3.160;2023-06-22T05:40:05;5.23;;;4.50;;
11921;SDS011;6021;51.182;3.160;2023-06-22T05:42:34;6.57;;;5.20;;
11921;SDS011;6021;51.182;3.160;2023-06-22T05:45:02;6.10;;;5.43;;
11921;SDS011;6021;51.182;3.160;2023-06-22T05:47:31;5.53;;;5.03;;
11921;SDS011;6021;51.182;3.160;2023-06-22T05:49:59;7.60;;;5.73;;
11921;SDS011;6021;51.182;3.160;2023-06-22T05:52:29;7.50;;;5.30;;
11921;SDS011;6021;51.182;3.160;2023-06-22T05:54:57;5.50;;;5.00;;
11921;SDS011;6021;51.182;3.160;2023-06-22T05:57:26;5.10;;;4.60;;
11921;SDS011;6021;51.182;3.160;2023-06-22T05:59:54;5.80;;;5.23;;
11921;SDS011;6021;51.182;3.160;2023-06-22T06:02:22;6.83;;;5.53;;
11921;SDS011;6021;51.182;3.160;2023-06-22T06:04:51;4.80;;;4.40;;
11921;SDS011;6021;51.182;3.160;2023-06-22T06:07:20;5.90;;;5.30;;
11921;SDS011;6021;51.182;3.160;2023-06-22T06:09:49;6.70;;;5.43;;
11921;SDS011;6021;51.182;3.160;2023-06-22T06:12:17;6.37;;;5.60;;
11921;SDS011;6021;51.182;3.160;2023-06-22T06:14:48;5.83;;;5.23;;
11921;SDS011;6021;51.182;3.160;2023-06-22T06:17:17;7.87;;;6.00;;
11921;SDS011;6021;51.182;3.160;2023-06-22T06:19:46;6.20;;;5.37;;
11921;SDS011;6021;51.182;3.160;2023-06-22T06:22:14;6.73;;;6.10;;
11921;SDS011;6021;51.182;3.160;2023-06-22T06:24:42;6.47;;;5.80;;
11921;SDS011;6021;51.182;3.160;2023-06-22T06:27:11;7.10;;;6.40;;
11921;SDS011;6021;51.182;3.160;2023-06-22T06:29:39;7.10;;;6.40;;
11921;SDS011;6021;51.182;3.160;2023-06-22T06:32:08;8.13;;;7.33;;
11921;SDS011;6021;51.182;3.160;2023-06-22T06:34:36;8.33;;;7.33;;
11921;SDS011;6021;51.182;3.160;2023-06-22T06:37:05;9.87;;;7.97;;
11921;SDS011;6021;51.182;3.160;2023-06-22T06:39:33;7.13;;;6.50;;
11921;SDS011;6021;51.182;3.160;2023-06-22T06:42:02;9.10;;;7.53;;
11921;SDS011;6021;51.182;3.160;2023-06-22T06:44:30;8.40;;;7.00;;
11921;SDS011;6021;51.182;3.160;2023-06-22T06:46:58;7.60;;;6.90;;
11921;SDS011;6021;51.182;3.160;2023-06-22T06:49:27;7.23;;;6.50;;
11921;SDS011;6021;51.182;3.160;2023-06-22T06:51:55;6.83;;;6.03;;
11921;SDS011;6021;51.182;3.160;2023-06-22T06:54:23;8.37;;;7.57;;
11921;SDS011;6021;51.182;3.160;2023-06-22T06:56:52;8.37;;;7.47;;
11921;SDS011;6021;51.182;3.160;2023-06-22T06:59:20;8.53;;;7.07;;
11921;SDS011;6021;51.182;3.160;2023-06-22T07:01:48;13.67;;;9.00;;
11921;SDS011;6021;51.182;3.160;2023-06-22T07:04:17;14.27;;;8.47;;
11921;SDS011;6021;51.182;3.160;2023-06-22T07:06:45;9.80;;;8.53;;
11921;SDS011;6021;51.182;3.160;2023-06-22T07:09:13;9.53;;;8.20;;
11921;SDS011;6021;51.182;3.160;2023-06-22T07:11:42;9.97;;;7.80;;
11921;SDS011;6021;51.182;3.160;2023-06-22T07:14:10;9.40;;;8.13;;
11921;SDS011;6021;51.182;3.160;2023-06-22T07:16:38;8.03;;;7.23;;
11921;SDS011;6021;51.182;3.160;2023-06-22T07:19:07;10.63;;;9.43;;
11921;SDS011;6021;51.182;3.160;2023-06-22T07:21:35;10.13;;;7.57;;
11921;SDS011;6021;51.182;3.160;2023-06-22T07:24:04;8.03;;;7.23;;
11921;SDS011;6021;51.182;3.160;2023-06-22T07:26:32;10.03;;;7.70;;
11921;SDS011;6021;51.182;3.160;2023-06-22T07:29:01;11.30;;;7.97;;
11921;SDS011;6021;51.182;3.160;2023-06-22T07:31:30;9.03;;;7.77;;
11921;SDS011;6021;51.182;3.160;2023-06-22T07:33:59;12.63;;;9.27;;
11921;SDS011;6021;51.182;3.160;2023-06-22T07:36:27;9.77;;;7.87;;
11921;SDS011;6021;51.182;3.160;2023-06-22T07:38:56;9.27;;;7.90;;
11921;SDS011;6021;51.182;3.160;2023-06-22T07:41:25;12.50;;;9.10;;
11921;SDS011;6021;51.182;3.160;2023-06-22T07:43:53;8.40;;;7.17;;
11921;SDS011;6021;51.182;3.160;2023-06-22T07:46:22;11.93;;;9.53;;
11921;SDS011;6021;51.182;3.160;2023-06-22T07:48:51;11.60;;;9.40;;
11921;SDS011;6021;51.182;3.160;2023-06-22T07:51:19;9.53;;;8.33;;
11921;SDS011;6021;51.182;3.160;2023-06-22T07:53:47;12.43;;;9.53;;
11921;SDS011;6021;51.182;3.160;2023-06-22T07:56:16;13.90;;;9.17;;
11921;SDS011;6021;51.182;3.160;2023-06-22T07:58:47;11.00;;;9.60;;
11921;SDS011;6021;51.182;3.160;2023-06-22T08:01:16;11.53;;;9.43;;
11921;SDS011;6021;51.182;3.160;2023-06-22T08:03:49;11.47;;;10.00;;
11921;SDS011;6021;51.182;3.160;2023-06-22T08:06:17;13.67;;;11.00;;
11921;SDS011;6021;51.182;3.160;2023-06-22T08:08:46;13.47;;;11.03;;
11921;SDS011;6021;51.182;3.160;2023-06-22T08:11:15;16.13;;;13.40;;
11921;SDS011;6021;51.182;3.160;2023-06-22T08:13:43;12.37;;;10.20;;
11921;SDS011;6021;51.182;3.160;2023-06-22T08:16:12;14.33;;;11.03;;
11921;SDS011;6021;51.182;3.160;2023-06-22T08:18:40;14.17;;;12.67;;
11921;SDS011;6021;51.182;3.160;2023-06-22T08:21:08;11.87;;;10.67;;
11921;SDS011;6021;51.182;3.160;2023-06-22T08:23:38;12.53;;;11.23;;
11921;SDS011;6021;51.182;3.160;2023-06-22T08:26:06;13.20;;;11.83;;
11921;SDS011;6021;51.182;3.160;2023-06-22T08:28:34;11.43;;;10.23;;
11921;SDS011;6021;51.182;3.160;2023-06-22T08:31:02;12.30;;;11.07;;
11921;SDS011;6021;51.182;3.160;2023-06-22T08:33:31;12.60;;;10.77;;
11921;SDS011;6021;51.182;3.160;2023-06-22T08:35:59;13.27;;;11.87;;
11921;SDS011;6021;51.182;3.160;2023-06-22T08:38:28;14.60;;;13.13;;
11921;SDS011;6021;51.182;3.160;2023-06-22T08:40:56;14.57;;;13.07;;
11921;SDS011;6021;51.182;3.160;2023-06-22T08:43:25;18.37;;;14.70;;
11921;SDS011;6021;51.182;3.160;2023-06-22T08:45:53;15.90;;;13.30;;
11921;SDS011;6021;51.182;3.160;2023-06-22T08:48:21;13.70;;;10.97;;
11921;SDS011;6021;51.182;3.160;2023-06-22T08:50:50;13.73;;;12.30;;
11921;SDS011;6021;51.182;3.160;2023-06-22T08:53:18;11.50;;;10.30;;
11921;SDS011;6021;51.182;3.160;2023-06-22T08:55:47;13.23;;;11.53;;
11921;SDS011;6021;51.182;3.160;2023-06-22T08:58:17;12.80;;;11.47;;
11921;SDS011;6021;51.182;3.160;2023-06-22T09:00:47;14.17;;;11.03;;
11921;SDS011;6021;51.182;3.160;2023-06-22T09:03:17;12.37;;;11.10;;
11921;SDS011;6021;51.182;3.160;2023-06-22T09:05:47;16.07;;;13.67;;
11921;SDS011;6021;51.182;3.160;2023-06-22T09:08:15;14.73;;;13.10;;
11921;SDS011;6021;51.182;3.160;2023-06-22T09:10:43;13.50;;;11.67;;
11921;SDS011;6021;51.182;3.160;2023-06-22T09:13:11;17.93;;;15.13;;
11921;SDS011;6021;51.182;3.160;2023-06-22T09:15:40;14.77;;;12.53;;
11921;SDS011;6021;51.182;3.160;2023-06-22T09:18:14;13.43;;;12.03;;
11921;SDS011;6021;51.182;3.160;2023-06-22T09:20:38;17.30;;;13.63;;
11921;SDS011;6021;51.182;3.160;2023-06-22T09:23:07;11.50;;;10.30;;
11921;SDS011;6021;51.182;3.160;2023-06-22T09:25:35;11.93;;;10.00;;
11921;SDS011;6021;51.182;3.160;2023-06-22T09:28:04;10.57;;;9.43;;
11921;SDS011;6021;51.182;3.160;2023-06-22T09:30:32;12.07;;;10.60;;
11921;SDS011;6021;51.182;3.160;2023-06-22T09:33:00;11.10;;;8.83;;
11921;SDS011;6021;51.182;3.160;2023-06-22T09:35:30;10.40;;;9.13;;
11921;SDS011;6021;51.182;3.160;2023-06-22T09:37:58;11.17;;;9.90;;
11921;SDS011;6021;51.182;3.160;2023-06-22T09:40:26;10.30;;;9.20;;
11921;SDS011;6021;51.182;3.160;2023-06-22T09:42:55;10.93;;;9.03;;
11921;SDS011;6021;51.182;3.160;2023-06-22T09:45:23;8.93;;;8.03;;
11921;SDS011;6021;51.182;3.160;2023-06-22T09:47:51;11.77;;;9.60;;
11921;SDS011;6021;51.182;3.160;2023-06-22T09:50:20;16.13;;;11.20;;
11921;SDS011;6021;51.182;3.160;2023-06-22T09:52:48;10.97;;;9.60;;
11921;SDS011;6021;51.182;3.160;2023-06-22T09:55:18;11.07;;;8.77;;
11921;SDS011;6021;51.182;3.160;2023-06-22T09:57:46;13.40;;;10.30;;
11921;SDS011;6021;51.182;3.160;2023-06-22T10:00:16;16.87;;;11.97;;
11921;SDS011;6021;51.182;3.160;2023-06-22T10:02:46;16.73;;;12.10;;
11921;SDS011;6021;51.182;3.160;2023-06-22T10:05:14;15.97;;;11.50;;
11921;SDS011;6021;51.182;3.160;2023-06-22T10:07:42;14.90;;;11.53;;
11921;SDS011;6021;51.182;3.160;2023-06-22T10:10:11;14.17;;;12.13;;
11921;SDS011;6021;51.182;3.160;2023-06-22T10:12:46;13.67;;;10.93;;
11921;SDS011;6021;51.182;3.160;2023-06-22T10:15:16;16.07;;;11.77;;
11921;SDS011;6021;51.182;3.160;2023-06-22T10:17:45;13.03;;;11.33;;
11921;SDS011;6021;51.182;3.160;2023-06-22T10:20:14;11.67;;;9.97;;
11921;SDS011;6021;51.182;3.160;2023-06-22T10:22:44;13.27;;;9.63;;
11921;SDS011;6021;51.182;3.160;2023-06-22T10:25:13;11.57;;;8.60;;
11921;SDS011;6021;51.182;3.160;2023-06-22T10:27:41;12.53;;;10.00;;
11921;SDS011;6021;51.182;3.160;2023-06-22T10:30:11;10.47;;;9.03;;
11921;SDS011;6021;51.182;3.160;2023-06-22T10:32:41;11.20;;;9.07;;
11921;SDS011;6021;51.182;3.160;2023-06-22T10:35:10;10.73;;;8.77;;
11921;SDS011;6021;51.182;3.160;2023-06-22T10:37:40;12.83;;;10.90;;
11921;SDS011;6021;51.182;3.160;2023-06-22T10:40:10;14.60;;;12.43;;
11921;SDS011;6021;51.182;3.160;2023-06-22T10:42:39;11.63;;;9.30;;
11921;SDS011;6021;51.182;3.160;2023-06-22T10:45:08;12.53;;;9.47;;
11921;SDS011;6021;51.182;3.160;2023-06-22T10:47:37;10.67;;;9.57;;
11921;SDS011;6021;51.182;3.160;2023-06-22T10:50:05;13.23;;;11.30;;
11921;SDS011;6021;51.182;3.160;2023-06-22T10:52:34;12.33;;;10.73;;
11921;SDS011;6021;51.182;3.160;2023-06-22T10:55:03;12.37;;;11.07;;
11921;SDS011;6021;51.182;3.160;2023-06-22T10:57:32;11.33;;;9.80;;
11921;SDS011;6021;51.182;3.160;2023-06-22T11:00:00;15.10;;;11.33;;
11921;SDS011;6021;51.182;3.160;2023-06-22T11:02:31;11.33;;;9.53;;
11921;SDS011;6021;51.182;3.160;2023-06-22T11:04:59;11.30;;;9.70;;
11921;SDS011;6021;51.182;3.160;2023-06-22T11:07:27;11.17;;;9.33;;
11921;SDS011;6021;51.182;3.160;2023-06-22T11:09:56;12.80;;;11.30;;
11921;SDS011;6021;51.182;3.160;2023-06-22T11:12:24;12.57;;;11.27;;
11921;SDS011;6021;51.182;3.160;2023-06-22T11:14:53;12.23;;;10.40;;
11921;SDS011;6021;51.182;3.160;2023-06-22T11:17:23;11.37;;;9.83;;
11921;SDS011;6021;51.182;3.160;2023-06-22T11:19:51;9.97;;;8.70;;
11921;SDS011;6021;51.182;3.160;2023-06-22T11:22:20;13.23;;;9.87;;
11921;SDS011;6021;51.182;3.160;2023-06-22T11:24:48;12.43;;;10.03;;
11921;SDS011;6021;51.182;3.160;2023-06-22T11:27:17;16.67;;;11.30;;
11921;SDS011;6021;51.182;3.160;2023-06-22T11:29:45;13.13;;;11.47;;
11921;SDS011;6021;51.182;3.160;2023-06-22T11:32:13;14.50;;;11.47;;
11921;SDS011;6021;51.182;3.160;2023-06-22T11:34:42;15.27;;;12.77;;
11921;SDS011;6021;51.182;3.160;2023-06-22T11:37:10;18.97;;;13.87;;
11921;SDS011;6021;51.182;3.160;2023-06-22T11:39:39;13.50;;;11.30;;
11921;SDS011;6021;51.182;3.160;2023-06-22T11:42:07;12.73;;;10.37;;
11921;SDS011;6021;51.182;3.160;2023-06-22T11:44:36;13.93;;;11.20;;
11921;SDS011;6021;51.182;3.160;2023-06-22T11:47:05;15.17;;;11.93;;
11921;SDS011;6021;51.182;3.160;2023-06-22T11:49:33;12.70;;;11.40;;
11921;SDS011;6021;51.182;3.160;2023-06-22T11:52:02;12.97;;;11.60;;
11921;SDS011;6021;51.182;3.160;2023-06-22T11:54:30;14.43;;;12.93;;
11921;SDS011;6021;51.182;3.160;2023-06-22T11:56:59;13.07;;;11.67;;
11921;SDS011;6021;51.182;3.160;2023-06-22T11:59:27;15.43;;;11.40;;
11921;SDS011;6021;51.182;3.160;2023-06-22T12:01:57;12.23;;;10.70;;
11921;SDS011;6021;51.182;3.160;2023-06-22T12:04:25;11.50;;;9.90;;
11921;SDS011;6021;51.182;3.160;2023-06-22T12:06:54;9.60;;;8.50;;
11921;SDS011;6021;51.182;3.160;2023-06-22T12:09:22;13.83;;;9.70;;
11921;SDS011;6021;51.182;3.160;2023-06-22T12:11:50;11.47;;;9.93;;
11921;SDS011;6021;51.182;3.160;2023-06-22T12:14:19;13.23;;;11.53;;
11921;SDS011;6021;51.182;3.160;2023-06-22T12:16:47;10.50;;;9.40;;
11921;SDS011;6021;51.182;3.160;2023-06-22T12:19:15;9.77;;;8.50;;
11921;SDS011;6021;51.182;3.160;2023-06-22T12:21:44;9.80;;;8.80;;
11921;SDS011;6021;51.182;3.160;2023-06-22T12:24:12;10.23;;;9.23;;
11921;SDS011;6021;51.182;3.160;2023-06-22T12:26:40;11.63;;;10.43;;
11921;SDS011;6021;51.182;3.160;2023-06-22T12:29:09;12.40;;;11.10;;
11921;SDS011;6021;51.182;3.160;2023-06-22T12:31:37;10.17;;;9.07;;
11921;SDS011;6021;51.182;3.160;2023-06-22T12:34:06;12.90;;;11.53;;
11921;SDS011;6021;51.182;3.160;2023-06-22T12:36:34;17.40;;;13.13;;
11921;SDS011;6021;51.182;3.160;2023-06-22T12:39:03;12.63;;;10.80;;
11921;SDS011;6021;51.182;3.160;2023-06-22T12:41:31;9.93;;;8.30;;
11921;SDS011;6021;51.182;3.160;2023-06-22T12:43:59;10.77;;;9.67;;
11921;SDS011;6021;51.182;3.160;2023-06-22T12:46:29;12.77;;;10.00;;
11921;SDS011;6021;51.182;3.160;2023-06-22T12:48:59;12.33;;;10.47;;
11921;SDS011;6021;51.182;3.160;2023-06-22T12:51:28;12.60;;;11.27;;
11921;SDS011;6021;51.182;3.160;2023-06-22T12:53:56;12.97;;;10.93;;
11921;SDS011;6021;51.182;3.160;2023-06-22T12:56:24;10.33;;;9.33;;
11921;SDS011;6021;51.182;3.160;2023-06-22T12:58:53;10.57;;;9.50;;
11921;SDS011;6021;51.182;3.160;2023-06-22T13:01:21;11.30;;;10.20;;
11921;SDS011;6021;51.182;3.160;2023-06-22T13:03:50;10.30;;;9.07;;
11921;SDS011;6021;51.182;3.160;2023-06-22T13:06:18;9.57;;;8.40;;
11921;SDS011;6021;51.182;3.160;2023-06-22T13:08:46;7.73;;;7.03;;
11921;SDS011;6021;51.182;3.160;2023-06-22T13:11:15;7.90;;;7.13;;
11921;SDS011;6021;51.182;3.160;2023-06-22T13:13:44;7.97;;;7.00;;
11921;SDS011;6021;51.182;3.160;2023-06-22T13:16:12;8.63;;;7.03;;
11921;SDS011;6021;51.182;3.160;2023-06-22T13:18:41;7.70;;;6.40;;
11921;SDS011;6021;51.182;3.160;2023-06-22T13:21:09;6.80;;;5.17;;
11921;SDS011;6021;51.182;3.160;2023-06-22T13:23:37;5.97;;;4.47;;
11921;SDS011;6021;51.182;3.160;2023-06-22T13:26:06;5.87;;;4.70;;
11921;SDS011;6021;51.182;3.160;2023-06-22T13:28:34;6.27;;;4.80;;
11921;SDS011;6021;51.182;3.160;2023-06-22T13:31:03;6.70;;;5.03;;
11921;SDS011;6021;51.182;3.160;2023-06-22T13:33:31;5.67;;;5.17;;
11921;SDS011;6021;51.182;3.160;2023-06-22T13:35:59;7.07;;;6.03;;
11921;SDS011;6021;51.182;3.160;2023-06-22T13:38:29;7.50;;;6.77;;
11921;SDS011;6021;51.182;3.160;2023-06-22T13:40:58;8.50;;;7.60;;
11921;SDS011;6021;51.182;3.160;2023-06-22T13:43:27;10.97;;;9.87;;
11921;SDS011;6021;51.182;3.160;2023-06-22T13:45:56;9.73;;;8.73;;
11921;SDS011;6021;51.182;3.160;2023-06-22T13:48:24;10.37;;;8.97;;
11921;SDS011;6021;51.182;3.160;2023-06-22T13:50:54;10.80;;;8.53;;
11921;SDS011;6021;51.182;3.160;2023-06-22T13:53:24;13.23;;;11.33;;
11921;SDS011;6021;51.182;3.160;2023-06-22T13:55:53;9.87;;;8.80;;
11921;SDS011;6021;51.182;3.160;2023-06-22T13:58:21;11.03;;;9.77;;
11921;SDS011;6021;51.182;3.160;2023-06-22T14:00:49;9.50;;;8.50;;
11921;SDS011;6021;51.182;3.160;2023-06-22T14:03:18;15.90;;;14.30;;
11921;SDS011;6021;51.182;3.160;2023-06-22T14:05:46;15.60;;;13.93;;
11921;SDS011;6021;51.182;3.160;2023-06-22T14:08:14;17.50;;;15.60;;
11921;SDS011;6021;51.182;3.160;2023-06-22T14:10:43;19.43;;;15.80;;
11921;SDS011;6021;51.182;3.160;2023-06-22T14:13:11;19.70;;;17.70;;
11921;SDS011;6021;51.182;3.160;2023-06-22T14:15:39;18.47;;;16.63;;
11921;SDS011;6021;51.182;3.160;2023-06-22T14:18:08;20.67;;;18.47;;
11921;SDS011;6021;51.182;3.160;2023-06-22T14:20:36;19.50;;;17.43;;
11921;SDS011;6021;51.182;3.160;2023-06-22T14:23:06;19.23;;;17.23;;
11921;SDS011;6021;51.182;3.160;2023-06-22T14:25:34;19.20;;;17.27;;
11921;SDS011;6021;51.182;3.160;2023-06-22T14:28:03;19.30;;;17.17;;
11921;SDS011;6021;51.182;3.160;2023-06-22T14:30:31;21.90;;;19.70;;
11921;SDS011;6021;51.182;3.160;2023-06-22T14:32:59;19.57;;;17.50;;
11921;SDS011;6021;51.182;3.160;2023-06-22T14:35:28;18.57;;;16.70;;
11921;SDS011;6021;51.182;3.160;2023-06-22T14:37:56;18.97;;;16.97;;
11921;SDS011;6021;51.182;3.160;2023-06-22T14:40:24;16.87;;;15.07;;
11921;SDS011;6021;51.182;3.160;2023-06-22T14:42:53;15.57;;;13.90;;
11921;SDS011;6021;51.182;3.160;2023-06-22T14:45:23;14.00;;;12.53;;
11921;SDS011;6021;51.182;3.160;2023-06-22T14:47:51;14.17;;;12.67;;
11921;SDS011;6021;51.182;3.160;2023-06-22T14:50:20;14.63;;;12.50;;
11921;SDS011;6021;51.182;3.160;2023-06-22T14:52:48;15.37;;;13.77;;
11921;SDS011;6021;51.182;3.160;2023-06-22T14:55:16;14.53;;;12.13;;
11921;SDS011;6021;51.182;3.160;2023-06-22T14:57:45;16.10;;;14.50;;
11921;SDS011;6021;51.182;3.160;2023-06-22T15:00:13;15.60;;;13.17;;
11921;SDS011;6021;51.182;3.160;2023-06-22T15:02:42;14.73;;;13.23;;
11921;SDS011;6021;51.182;3.160;2023-06-22T15:05:10;13.37;;;11.97;;
11921;SDS011;6021;51.182;3.160;2023-06-22T15:07:39;11.60;;;10.47;;